createdAt,value
2023-11-07T00:00:18.024Z,54.28
2023-11-07T00:02:44.533Z,55.35
2023-11-07T00:05:11.151Z,53.98
2023-11-07T00:07:37.852Z,54.16
2023-11-07T00:10:04.431Z,53.78
2023-11-07T00:12:30.943Z,52.62
2023-11-07T00:14:57.438Z,53.00
2023-11-07T00:17:23.919Z,53.73
2023-11-07T00:19:50.401Z,53.32
2023-11-07T00:22:16.851Z,53.15
2023-11-07T00:24:43.323Z,53.15
2023-11-07T00:27:09.808Z,52.46
2023-11-07T00:29:36.273Z,52.69
2023-11-07T00:32:02.798Z,53.12
2023-11-07T00:34:29.366Z,53.03
2023-11-07T00:36:55.936Z,52.46
2023-11-07T00:39:22.403Z,53.43
2023-11-07T00:41:48.964Z,53.10
2023-11-07T00:44:15.467Z,53.50
2023-11-07T00:46:42.037Z,54.05
2023-11-07T00:49:08.582Z,53.97
2023-11-07T00:51:35.183Z,52.90
2023-11-07T00:54:01.699Z,53.29
2023-11-07T00:56:28.211Z,53.43
2023-11-07T00:58:55.823Z,54.27
2023-11-07T01:01:22.318Z,54.64
2023-11-07T01:03:48.877Z,55.25
2023-11-07T01:06:15.648Z,54.75
2023-11-07T01:08:42.179Z,54.29
2023-11-07T01:11:08.637Z,54.11
2023-11-07T01:13:35.095Z,53.97
2023-11-07T01:16:01.551Z,54.11
2023-11-07T01:18:28.179Z,53.94
2023-11-07T01:20:54.696Z,52.82
2023-11-07T01:23:21.157Z,53.51
2023-11-07T01:25:47.622Z,53.31
2023-11-07T01:28:14.105Z,53.06
2023-11-07T01:30:40.578Z,53.25
2023-11-07T01:33:07.225Z,53.20
2023-11-07T01:35:33.911Z,53.64
2023-11-07T01:38:00.407Z,53.63
2023-11-07T01:40:26.954Z,53.96
2023-11-07T01:42:53.392Z,53.44
2023-11-07T01:45:19.844Z,53.82
2023-11-07T01:47:46.583Z,53.69
2023-11-07T01:50:13.163Z,54.11
2023-11-07T01:52:39.721Z,53.87
2023-11-07T01:55:06.183Z,54.21
2023-11-07T01:57:32.617Z,54.08
2023-11-07T01:59:59.096Z,53.90
2023-11-07T02:02:25.641Z,54.31
2023-11-07T02:04:52.199Z,53.80
2023-11-07T02:07:18.742Z,53.87
2023-11-07T02:09:45.189Z,54.21
2023-11-07T02:12:11.765Z,55.38
2023-11-07T02:14:38.428Z,55.20
2023-11-07T02:17:05.107Z,54.30
2023-11-07T02:19:31.625Z,54.66
2023-11-07T02:21:58.103Z,54.46
2023-11-07T02:24:24.607Z,54.93
2023-11-07T02:26:51.175Z,54.46
2023-11-07T02:29:17.797Z,53.88
2023-11-07T02:31:44.274Z,54.89
2023-11-07T02:34:10.829Z,55.00
2023-11-07T02:36:37.322Z,54.07
2023-11-07T02:39:03.790Z,54.09
2023-11-07T02:41:30.315Z,54.69
2023-11-07T02:43:56.840Z,55.90
2023-11-07T02:46:23.343Z,54.58
2023-11-07T02:48:49.919Z,54.81
2023-11-07T02:51:16.430Z,54.63
2023-11-07T02:53:42.913Z,54.49
2023-11-07T02:56:09.393Z,54.26
2023-11-07T02:58:35.877Z,54.61
2023-11-07T03:01:02.431Z,55.09
2023-11-07T03:03:28.972Z,54.45
2023-11-07T03:05:55.579Z,55.08
2023-11-07T03:08:22.096Z,55.27
2023-11-07T03:10:48.628Z,55.25
2023-11-07T03:13:15.112Z,54.41
2023-11-07T03:15:41.568Z,53.89
2023-11-07T03:18:08.380Z,54.57
2023-11-07T03:20:34.957Z,54.44
2023-11-07T03:23:01.393Z,54.41
2023-11-07T03:25:27.863Z,54.59
2023-11-07T03:27:54.306Z,54.32
2023-11-07T03:30:20.795Z,55.05
2023-11-07T03:32:47.313Z,54.22
2023-11-07T03:35:13.788Z,54.07
2023-11-07T03:37:40.243Z,54.09
2023-11-07T03:40:06.827Z,53.90
2023-11-07T03:42:33.366Z,53.86
2023-11-07T03:44:59.847Z,54.16
2023-11-07T03:47:26.350Z,54.77
2023-11-07T03:49:52.844Z,54.61
2023-11-07T03:52:19.284Z,54.72
2023-11-07T03:54:45.725Z,53.88
2023-11-07T03:57:12.220Z,52.50
2023-11-07T03:59:38.720Z,52.89
2023-11-07T04:02:05.225Z,52.36
2023-11-07T04:04:31.711Z,51.85
2023-11-07T04:06:58.268Z,52.91
2023-11-07T04:09:24.760Z,53.26
2023-11-07T04:11:51.296Z,51.46
2023-11-07T04:14:17.760Z,51.74
2023-11-07T04:16:44.221Z,52.60
2023-11-07T04:19:10.750Z,51.34
2023-11-07T04:21:37.301Z,51.79
2023-11-07T04:24:03.829Z,52.21
2023-11-07T04:26:30.316Z,51.52
2023-11-07T04:28:56.774Z,50.88
2023-11-07T04:31:23.216Z,51.52
2023-11-07T04:33:49.719Z,51.77
2023-11-07T04:36:16.274Z,50.79
2023-11-07T04:38:42.886Z,51.88
2023-11-07T04:41:09.443Z,51.21
2023-11-07T04:43:35.882Z,52.78
2023-11-07T04:46:02.351Z,52.89
2023-11-07T04:48:28.911Z,52.20
2023-11-07T04:50:55.427Z,52.02
2023-11-07T04:53:21.897Z,51.25
2023-11-07T04:55:48.392Z,51.61
2023-11-07T04:58:14.838Z,51.85
2023-11-07T05:00:41.309Z,51.56
2023-11-07T05:03:07.983Z,51.38
2023-11-07T05:05:34.620Z,51.07
2023-11-07T05:08:01.136Z,52.02
2023-11-07T05:10:27.600Z,51.60
2023-11-07T05:12:54.060Z,51.39
2023-11-07T05:15:20.541Z,52.57
2023-11-07T05:17:47.125Z,52.80
2023-11-07T05:20:13.772Z,52.56
2023-11-07T05:22:40.303Z,52.07
2023-11-07T05:25:06.742Z,51.66
2023-11-07T05:27:33.377Z,52.30
2023-11-07T05:29:59.934Z,52.14
2023-11-07T05:32:26.524Z,53.31
2023-11-07T05:34:52.984Z,52.44
2023-11-07T05:37:19.409Z,52.40
2023-11-07T05:39:45.860Z,51.81
2023-11-07T05:42:12.403Z,52.04
2023-11-07T05:44:38.907Z,51.47
2023-11-07T05:47:05.416Z,51.35
2023-11-07T05:49:31.973Z,51.51
2023-11-07T05:51:58.468Z,51.30
2023-11-07T05:54:24.947Z,50.86
2023-11-07T05:56:51.454Z,51.99
2023-11-07T05:59:17.957Z,51.89
2023-11-07T06:01:44.379Z,52.62
2023-11-07T06:04:10.882Z,51.30
2023-11-07T06:06:37.401Z,50.98
2023-11-07T06:09:03.963Z,51.00
2023-11-07T06:11:30.467Z,52.07
2023-11-07T06:13:56.932Z,52.01
2023-11-07T06:16:23.697Z,50.99
2023-11-07T06:18:50.340Z,51.51
2023-11-07T06:21:16.893Z,51.92
2023-11-07T06:23:43.375Z,52.35
2023-11-07T06:26:10.095Z,51.53
2023-11-07T06:28:36.573Z,51.37
2023-11-07T06:31:03.050Z,50.97
2023-11-07T06:33:29.578Z,50.88
2023-11-07T06:35:56.290Z,51.04
2023-11-07T06:38:22.849Z,50.63
2023-11-07T06:40:49.383Z,51.97
2023-11-07T06:43:15.927Z,51.06
2023-11-07T06:45:42.434Z,51.00
2023-11-07T06:48:09.068Z,51.02
2023-11-07T06:50:35.729Z,51.14
2023-11-07T06:53:02.164Z,51.13
2023-11-07T06:55:28.929Z,50.79
2023-11-07T06:57:55.422Z,50.42
2023-11-07T07:00:21.949Z,50.50
2023-11-07T07:02:48.557Z,52.00
2023-11-07T07:05:15.284Z,51.33
2023-11-07T07:07:41.827Z,51.31
2023-11-07T07:10:08.308Z,51.27
2023-11-07T07:12:34.739Z,51.97
2023-11-07T07:15:01.267Z,51.93
2023-11-07T07:17:27.826Z,51.52
2023-11-07T07:19:54.331Z,51.35
2023-11-07T07:22:20.810Z,50.33
2023-11-07T07:24:47.248Z,50.18
2023-11-07T07:27:13.744Z,51.06
2023-11-07T07:29:40.239Z,51.33
2023-11-07T07:32:06.714Z,51.36
2023-11-07T07:34:33.217Z,50.51
2023-11-07T07:36:59.798Z,50.13
2023-11-07T07:39:26.478Z,50.06
2023-11-07T07:41:53.022Z,50.11
2023-11-07T07:44:19.579Z,49.75
2023-11-07T07:46:46.001Z,49.95
2023-11-07T07:49:12.685Z,50.78
2023-11-07T07:51:39.235Z,50.49
2023-11-07T07:54:09.889Z,50.29
2023-11-07T07:56:42.966Z,50.39
2023-11-07T07:59:09.920Z,50.47
2023-11-07T08:01:36.524Z,50.84
2023-11-07T08:04:02.996Z,50.23
2023-11-07T08:06:29.544Z,49.86
2023-11-07T08:08:56.081Z,49.63
2023-11-07T08:11:22.657Z,49.89
2023-11-07T08:13:49.128Z,50.00
2023-11-07T08:16:15.560Z,49.51
2023-11-07T08:18:42.152Z,49.42
2023-11-07T08:21:08.705Z,50.25
2023-11-07T08:23:35.182Z,50.74
2023-11-07T08:26:01.737Z,50.97
2023-11-07T08:28:28.188Z,50.14
2023-11-07T08:30:54.638Z,49.94
2023-11-07T08:33:21.243Z,50.14
2023-11-07T08:35:47.739Z,51.00
2023-11-07T08:38:14.222Z,50.67
2023-11-07T08:40:40.702Z,51.24
2023-11-07T08:43:07.243Z,50.84
2023-11-07T08:45:34.622Z,51.62
2023-11-07T08:48:01.557Z,52.01
2023-11-07T08:50:28.113Z,50.96
2023-11-07T08:52:54.605Z,51.57
2023-11-07T08:55:21.131Z,51.32
2023-11-07T08:57:47.689Z,51.49
2023-11-07T09:00:14.292Z,51.47
2023-11-07T09:02:40.985Z,51.01
2023-11-07T09:05:07.571Z,51.93
2023-11-07T09:07:34.029Z,52.48
2023-11-07T09:10:00.580Z,51.99
2023-11-07T09:12:27.083Z,51.80
2023-11-07T09:14:53.583Z,52.65
2023-11-07T09:17:20.164Z,52.15
2023-11-07T09:19:46.727Z,52.14
2023-11-07T09:22:13.196Z,52.65
2023-11-07T09:24:39.645Z,52.74
2023-11-07T09:27:06.241Z,52.91
2023-11-07T09:29:32.708Z,53.35
2023-11-07T09:31:59.448Z,53.25
2023-11-07T09:34:26.155Z,53.69
2023-11-07T09:36:52.712Z,53.34
2023-11-07T09:39:19.238Z,54.29
2023-11-07T09:41:45.746Z,53.74
2023-11-07T09:44:12.821Z,55.05
2023-11-07T09:46:39.338Z,54.72
2023-11-07T09:49:05.996Z,54.45
2023-11-07T09:51:32.619Z,53.86
2023-11-07T09:53:59.135Z,54.89
2023-11-07T09:56:25.653Z,55.71
2023-11-07T09:58:52.674Z,54.00
2023-11-07T10:01:20.482Z,55.40
2023-11-07T10:03:47.607Z,55.63
2023-11-07T10:06:14.259Z,56.09
2023-11-07T10:08:40.766Z,57.53
2023-11-07T10:11:07.221Z,55.13
2023-11-07T10:13:33.699Z,56.48
2023-11-07T10:16:06.716Z,56.86
2023-11-07T10:18:36.660Z,56.08
2023-11-07T10:21:03.330Z,54.88
2023-11-07T10:23:31.503Z,55.26
2023-11-07T10:25:57.942Z,56.00
2023-11-07T10:28:24.544Z,54.48
2023-11-07T10:31:00.618Z,54.64
2023-11-07T10:33:27.269Z,55.21
2023-11-07T10:35:53.948Z,54.64
2023-11-07T10:38:26.654Z,54.21
2023-11-07T10:40:53.246Z,55.21
2023-11-07T10:43:19.769Z,54.66
2023-11-07T10:45:46.216Z,54.95
2023-11-07T10:48:12.980Z,56.10
2023-11-07T10:50:39.608Z,55.10
2023-11-07T10:53:06.244Z,55.11
2023-11-07T10:55:32.745Z,55.49
2023-11-07T10:57:59.397Z,54.59
2023-11-07T11:00:25.888Z,53.92
2023-11-07T11:02:52.452Z,54.16
2023-11-07T11:05:21.830Z,53.89
2023-11-07T11:07:48.381Z,54.33
2023-11-07T11:10:14.992Z,53.20
2023-11-07T11:12:41.452Z,52.88
2023-11-07T11:15:08.046Z,52.49
2023-11-07T11:17:34.777Z,53.60
2023-11-07T11:20:01.406Z,53.48
2023-11-07T11:22:27.925Z,53.35
2023-11-07T11:24:54.597Z,52.67
2023-11-07T11:27:21.258Z,52.69
2023-11-07T11:29:50.632Z,51.08
2023-11-07T11:32:17.227Z,51.71
2023-11-07T11:34:45.511Z,51.22
2023-11-07T11:37:12.323Z,51.47
2023-11-07T11:39:38.864Z,50.76
2023-11-07T11:42:05.452Z,51.61
2023-11-07T11:44:32.027Z,50.33
2023-11-07T11:46:58.545Z,50.07
2023-11-07T11:49:25.245Z,50.67
2023-11-07T11:51:51.814Z,49.70
2023-11-07T11:54:18.555Z,49.65
2023-11-07T11:56:45.084Z,50.09
2023-11-07T11:59:11.597Z,49.67
2023-11-07T12:01:38.426Z,50.03
2023-11-07T12:04:05.323Z,50.72
2023-11-07T12:06:31.960Z,49.81
2023-11-07T12:08:58.674Z,50.39
2023-11-07T12:11:32.639Z,52.13
2023-11-07T12:14:03.744Z,50.85
2023-11-07T12:16:30.220Z,51.14
2023-11-07T12:18:56.867Z,51.10
2023-11-07T12:21:23.525Z,50.83
2023-11-07T12:23:50.336Z,51.89
2023-11-07T12:26:16.849Z,51.13
2023-11-07T12:28:43.363Z,51.82
2023-11-07T12:31:17.230Z,52.00
2023-11-07T12:33:50.059Z,51.33
2023-11-07T12:36:16.699Z,50.52
2023-11-07T12:38:43.275Z,51.06
2023-11-07T12:41:09.829Z,51.34
2023-11-07T12:43:36.357Z,52.83
2023-11-07T12:46:02.802Z,52.46
2023-11-07T12:48:29.577Z,50.79
2023-11-07T12:50:56.094Z,51.40
2023-11-07T12:53:22.540Z,50.19
2023-11-07T12:55:48.978Z,50.44
2023-11-07T12:58:15.635Z,49.54
2023-11-07T13:00:43.043Z,49.89
2023-11-07T13:03:10.830Z,50.00
2023-11-07T13:05:37.393Z,50.32
2023-11-07T13:08:03.904Z,50.95
2023-11-07T13:10:30.363Z,50.63
2023-11-07T13:12:56.819Z,50.28
2023-11-07T13:15:23.471Z,50.13
2023-11-07T13:17:50.049Z,50.28
2023-11-07T13:20:16.561Z,50.94
2023-11-07T13:22:43.102Z,51.93
2023-11-07T13:25:09.605Z,52.23
2023-11-07T13:27:36.074Z,51.93
2023-11-07T13:30:02.632Z,52.76
2023-11-07T13:32:29.213Z,53.36
2023-11-07T13:34:55.806Z,52.52
2023-11-07T13:37:22.314Z,52.69
2023-11-07T13:39:48.756Z,52.31
2023-11-07T13:42:15.249Z,52.52
2023-11-07T13:44:41.704Z,53.03
2023-11-07T13:47:08.237Z,52.15
2023-11-07T13:49:36.663Z,51.89
2023-11-07T13:52:04.507Z,51.26
2023-11-07T13:54:31.094Z,50.91
2023-11-07T13:56:57.640Z,50.11
2023-11-07T13:59:24.318Z,50.13
2023-11-07T14:01:50.834Z,50.74
2023-11-07T14:04:17.418Z,49.96
2023-11-07T14:06:44.074Z,49.81
2023-11-07T14:09:10.590Z,49.17
2023-11-07T14:11:37.060Z,48.76
2023-11-07T14:14:03.569Z,48.67
2023-11-07T14:16:30.020Z,48.07
2023-11-07T14:18:56.682Z,48.91
2023-11-07T14:21:23.362Z,50.11
2023-11-07T14:23:49.940Z,48.33
2023-11-07T14:26:16.610Z,48.83
2023-11-07T14:28:50.908Z,48.77
2023-11-07T14:31:25.726Z,49.27
2023-11-07T14:33:52.355Z,48.89
2023-11-07T14:36:19.038Z,49.10
2023-11-07T14:38:45.585Z,49.61
2023-11-07T14:41:12.032Z,49.16
2023-11-07T14:43:38.495Z,49.17
2023-11-07T14:46:04.961Z,50.24
2023-11-07T14:48:31.861Z,50.56
2023-11-07T14:50:58.502Z,50.69
2023-11-07T14:53:24.982Z,51.61
2023-11-07T14:55:51.441Z,52.08
2023-11-07T14:58:17.925Z,50.65
2023-11-07T15:00:44.355Z,52.33
2023-11-07T15:03:12.053Z,50.93
2023-11-07T15:05:39.106Z,51.60
2023-11-07T15:08:05.579Z,51.22
2023-11-07T15:10:34.485Z,51.15
2023-11-07T15:13:01.042Z,50.92
2023-11-07T15:15:27.614Z,50.67
2023-11-07T15:17:54.300Z,49.86
2023-11-07T15:20:20.888Z,50.06
2023-11-07T15:22:47.319Z,49.37
2023-11-07T15:25:13.858Z,51.42
2023-11-07T15:27:40.472Z,52.38
2023-11-07T15:30:07.246Z,51.96
2023-11-07T15:32:33.773Z,51.56
2023-11-07T15:35:00.275Z,52.82
2023-11-07T15:37:26.734Z,54.28
2023-11-07T15:39:53.172Z,53.72
2023-11-07T15:42:19.807Z,52.94
2023-11-07T15:44:46.355Z,52.38
2023-11-07T15:47:13.025Z,52.35
2023-11-07T15:49:39.617Z,52.83
2023-11-07T15:52:06.087Z,52.73
2023-11-07T15:54:32.749Z,53.71
2023-11-07T15:56:59.271Z,53.85
2023-11-07T15:59:25.789Z,55.40
2023-11-07T16:01:52.268Z,56.36
2023-11-07T16:04:18.764Z,56.26
2023-11-07T16:06:45.297Z,55.98
2023-11-07T16:09:11.768Z,57.29
2023-11-07T16:11:38.237Z,55.29
2023-11-07T16:14:07.871Z,54.85
2023-11-07T16:16:34.342Z,56.52
2023-11-07T16:19:00.939Z,56.10
2023-11-07T16:21:27.478Z,55.51
2023-11-07T16:23:54.005Z,56.38
2023-11-07T16:26:20.453Z,55.72
2023-11-07T16:28:46.938Z,55.46
2023-11-07T16:31:13.399Z,55.43
2023-11-07T16:33:40.008Z,55.73
2023-11-07T16:36:06.571Z,55.19
2023-11-07T16:38:33.041Z,55.44
2023-11-07T16:40:59.566Z,54.51
2023-11-07T16:43:26.185Z,55.87
2023-11-07T16:45:52.648Z,55.54
2023-11-07T16:48:19.237Z,55.09
2023-11-07T16:50:45.774Z,55.16
2023-11-07T16:53:12.254Z,54.71
2023-11-07T16:55:38.750Z,53.93
2023-11-07T16:58:05.252Z,53.78
2023-11-07T17:00:31.924Z,53.99
2023-11-07T17:02:58.492Z,54.97
2023-11-07T17:05:25.231Z,55.48
2023-11-07T17:07:51.712Z,55.17
2023-11-07T17:10:18.278Z,56.81
2023-11-07T17:12:44.712Z,56.34
2023-11-07T17:15:11.206Z,56.33
2023-11-07T17:17:38.194Z,56.69
2023-11-07T17:20:05.151Z,56.25
2023-11-07T17:22:31.618Z,58.00
2023-11-07T17:24:58.078Z,57.72
2023-11-07T17:27:24.688Z,56.73
2023-11-07T17:29:51.185Z,56.19
2023-11-07T17:32:17.734Z,57.50
2023-11-07T17:34:44.208Z,56.58
2023-11-07T17:37:10.665Z,56.49
2023-11-07T17:39:37.168Z,57.38
2023-11-07T17:42:03.780Z,56.84
2023-11-07T17:44:30.277Z,57.38
2023-11-07T17:46:56.747Z,57.36
2023-11-07T17:49:23.349Z,57.62
2023-11-07T17:51:49.914Z,58.31
2023-11-07T17:54:16.542Z,56.96
2023-11-07T17:56:43.016Z,56.08
2023-11-07T17:59:09.547Z,57.40
2023-11-07T18:01:36.161Z,57.02
2023-11-07T18:04:02.915Z,57.00
2023-11-07T18:06:29.519Z,56.98
2023-11-07T18:08:56.107Z,57.43
2023-11-07T18:11:22.675Z,58.15
2023-11-07T18:13:49.185Z,57.87
2023-11-07T18:16:15.616Z,59.05
2023-11-07T18:18:57.326Z,58.34
2023-11-07T18:21:25.888Z,57.78
2023-11-07T18:23:52.436Z,57.78
2023-11-07T18:26:19.056Z,59.57
2023-11-07T18:28:45.524Z,58.60
2023-11-07T18:31:14.139Z,58.25
2023-11-07T18:33:40.744Z,58.19
2023-11-07T18:36:07.384Z,57.21
2023-11-07T18:38:33.846Z,57.46
2023-11-07T18:41:00.336Z,57.49
2023-11-07T18:43:26.932Z,57.85
2023-11-07T18:45:53.405Z,59.06
2023-11-07T18:48:20.069Z,59.23
2023-11-07T18:50:46.805Z,59.75
2023-11-07T18:53:13.403Z,59.60
2023-11-07T18:55:39.931Z,60.47
2023-11-07T18:58:06.350Z,62.67
2023-11-07T19:00:32.902Z,60.73
2023-11-07T19:02:59.492Z,62.60
2023-11-07T19:05:26.039Z,63.10
2023-11-07T19:07:52.516Z,62.50
2023-11-07T19:10:19.031Z,62.79
2023-11-07T19:12:45.465Z,63.02
2023-11-07T19:15:11.963Z,62.87
2023-11-07T19:17:38.458Z,62.84
2023-11-07T19:20:04.916Z,64.04
2023-11-07T19:22:31.504Z,64.48
2023-11-07T19:24:58.406Z,64.65
2023-11-07T19:27:24.911Z,64.69
2023-11-07T19:29:51.533Z,65.15
2023-11-07T19:32:18.012Z,64.42
2023-11-07T19:34:44.538Z,64.19
2023-11-07T19:37:11.197Z,64.28
2023-11-07T19:39:37.764Z,64.49
2023-11-07T19:42:04.315Z,65.15
2023-11-07T19:44:30.820Z,65.11
2023-11-07T19:46:57.289Z,64.15
2023-11-07T19:49:23.841Z,63.98
2023-11-07T19:51:50.316Z,65.10
2023-11-07T19:54:16.838Z,65.49
2023-11-07T19:56:43.314Z,65.14
2023-11-07T19:59:12.324Z,65.46
2023-11-07T20:01:39.242Z,65.38
2023-11-07T20:04:06.087Z,64.70
2023-11-07T20:06:32.750Z,65.25
2023-11-07T20:08:59.243Z,66.30
2023-11-07T20:11:25.811Z,65.90
2023-11-07T20:13:52.299Z,66.39
2023-11-07T20:16:18.794Z,65.42
2023-11-07T20:18:45.391Z,65.48
2023-11-07T20:21:14.782Z,64.90
2023-11-07T20:23:41.248Z,64.68
2023-11-07T20:26:07.784Z,62.46
2023-11-07T20:28:34.302Z,64.05
2023-11-07T20:31:00.764Z,64.97
2023-11-07T20:33:37.189Z,64.64
2023-11-07T20:36:11.044Z,64.89
2023-11-07T20:38:37.743Z,64.84
2023-11-07T20:41:04.277Z,64.66
2023-11-07T20:43:30.829Z,66.25
2023-11-07T20:45:57.258Z,66.46
2023-11-07T20:48:23.801Z,64.98
2023-11-07T20:50:50.339Z,64.83
2023-11-07T20:53:16.910Z,64.47
2023-11-07T20:55:43.417Z,63.99
2023-11-07T20:58:09.915Z,65.14
2023-11-07T21:00:36.442Z,64.69
2023-11-07T21:03:03.078Z,64.00
2023-11-07T21:05:29.655Z,64.06
2023-11-07T21:07:56.195Z,63.04
2023-11-07T21:10:22.654Z,63.42
2023-11-07T21:12:49.129Z,62.58
2023-11-07T21:15:15.609Z,63.13
2023-11-07T21:17:42.131Z,63.04
2023-11-07T21:20:08.785Z,63.27
2023-11-07T21:22:35.276Z,64.00
2023-11-07T21:25:01.980Z,64.36
2023-11-07T21:27:28.461Z,65.38
2023-11-07T21:29:54.997Z,65.61
2023-11-07T21:32:21.488Z,64.83
2023-11-07T21:34:47.937Z,64.38
2023-11-07T21:37:14.473Z,64.67
2023-11-07T21:39:40.948Z,63.52
2023-11-07T21:42:07.489Z,64.48
2023-11-07T21:44:33.993Z,65.45
2023-11-07T21:47:00.477Z,64.10
2023-11-07T21:49:27.140Z,63.31
2023-11-07T21:51:53.707Z,63.48
2023-11-07T21:54:20.210Z,64.50
2023-11-07T21:56:46.676Z,63.86
2023-11-07T21:59:13.146Z,64.19
2023-11-07T22:01:39.654Z,64.02
2023-11-07T22:04:06.106Z,64.19
2023-11-07T22:06:32.728Z,62.45
2023-11-07T22:08:59.454Z,63.27
2023-11-07T22:11:25.963Z,63.30
2023-11-07T22:13:52.422Z,62.77
2023-11-07T22:16:18.923Z,62.04
2023-11-07T22:18:45.456Z,61.69
2023-11-07T22:21:11.998Z,61.42
2023-11-07T22:23:38.547Z,61.18
2023-11-07T22:26:05.023Z,62.67
2023-11-07T22:28:31.798Z,62.59
2023-11-07T22:30:58.244Z,63.45
2023-11-07T22:33:24.799Z,62.88
2023-11-07T22:35:51.289Z,63.05
2023-11-07T22:38:17.735Z,64.78
2023-11-07T22:40:44.229Z,64.88
2023-11-07T22:43:10.675Z,65.43
2023-11-07T22:45:37.160Z,65.65
2023-11-07T22:48:03.709Z,65.97
2023-11-07T22:50:30.237Z,65.64
2023-11-07T22:52:56.707Z,65.68
2023-11-07T22:55:23.142Z,66.59
2023-11-07T22:57:49.654Z,67.47
2023-11-07T23:00:16.146Z,67.84
2023-11-07T23:02:42.672Z,66.80
2023-11-07T23:05:09.169Z,67.24
2023-11-07T23:07:35.699Z,67.62
2023-11-07T23:10:02.217Z,66.90
2023-11-07T23:12:28.712Z,66.43
2023-11-07T23:14:55.242Z,67.11
2023-11-07T23:17:21.739Z,66.75
2023-11-07T23:19:48.231Z,66.73
2023-11-07T23:22:14.766Z,67.52
2023-11-07T23:24:41.239Z,67.68
2023-11-07T23:27:07.873Z,67.11
2023-11-07T23:29:34.366Z,67.20
2023-11-07T23:32:00.910Z,67.50
2023-11-07T23:34:27.470Z,67.33
2023-11-07T23:36:53.971Z,68.12
2023-11-07T23:39:20.440Z,68.40
2023-11-07T23:41:46.867Z,67.75
2023-11-07T23:44:13.325Z,67.38
2023-11-07T23:46:41.742Z,67.24
2023-11-07T23:49:08.351Z,67.46
2023-11-07T23:51:34.808Z,67.73
2023-11-07T23:54:01.284Z,67.91
2023-11-07T23:56:27.786Z,67.43
2023-11-07T23:58:54.791Z,67.88
